Time;durP1;ratioP1;P1;durP2;ratioP2;P2;SDS_P1;SDS_P2;PMS_P1;PMS_P2;Temp;Humidity;BMP_temperature;BMP_pressure;BME280_temperature;BME280_humidity;BME280_pressure;Samples;Min_cycle;Max_cycle;Signal;HPM_P1;HPM_P2
2019/08/19 00:00:34;;;;;;;1.7;1;;;;;;;21.8;71.83887;1000.582;;;;
2019/08/19 00:02:59;;;;;;;1.5;1;;;;;;;21.88;71.53516;1000.563;;;;
2019/08/19 00:05:24;;;;;;;1.5;1;;;;;;;21.84;71.75098;1000.616;;;;
2019/08/19 00:07:49;;;;;;;2;1.1;;;;;;;21.78;71.97559;1000.575;;;;
2019/08/19 00:10:14;;;;;;;1.8;1.1;;;;;;;21.72;72.34277;1000.661;;;;
2019/08/19 00:12:39;;;;;;;1.5;1.3;;;;;;;21.74;72.18164;1000.686;;;;
2019/08/19 00:15:04;;;;;;;3.3;1.1;;;;;;;21.75;71.8418;1000.651;;;;
2019/08/19 00:17:30;;;;;;;1.9;1.1;;;;;;;21.68;72.1709;1000.668;;;;
2019/08/19 00:19:55;;;;;;;1.2;1;;;;;;;21.86;71.35449;1000.695;;;;
2019/08/19 00:22:20;;;;;;;1.7;1;;;;;;;21.94;71.20313;1000.681;;;;
2019/08/19 00:24:45;;;;;;;1.6;1;;;;;;;21.97;70.24414;1000.789;;;;
2019/08/19 00:27:10;;;;;;;1.5;0.8;;;;;;;21.96;70.10254;1000.836;;;;
2019/08/19 00:29:36;;;;;;;1.9;1.1;;;;;;;21.93;69.61523;1000.845;;;;
2019/08/19 00:32:01;;;;;;;1.3;0.8;;;;;;;21.88;69.50293;1000.845;;;;
2019/08/19 00:34:26;;;;;;;1.4;0.9;;;;;;;21.99;68.50781;1000.863;;;;
2019/08/19 00:36:51;;;;;;;0.9;0.7;;;;;;;22.03;67.49219;1000.885;;;;
2019/08/19 00:39:16;;;;;;;1.6;0.8;;;;;;;21.91;67.58008;1000.917;;;;
2019/08/19 00:41:41;;;;;;;1.7;0.8;;;;;;;21.97;67.28418;1001.006;;;;
2019/08/19 00:44:06;;;;;;;1;0.8;;;;;;;21.78;68.12305;1001.08;;;;
2019/08/19 00:46:31;;;;;;;1.6;1;;;;;;;21.87;67.94922;1001.106;;;;
2019/08/19 00:48:57;;;;;;;1.2;0.9;;;;;;;21.9;67.55469;1001.153;;;;
2019/08/19 00:51:22;;;;;;;1.2;0.9;;;;;;;21.86;67.95898;1001.226;;;;
2019/08/19 00:53:47;;;;;;;1.4;0.8;;;;;;;21.74;68.11719;1001.23;;;;
2019/08/19 00:56:12;;;;;;;1.9;0.8;;;;;;;21.68;68.10938;1001.207;;;;
2019/08/19 00:58:37;;;;;;;1.8;0.8;;;;;;;21.75;68.11914;1001.213;;;;
2019/08/19 01:01:02;;;;;;;1.4;0.7;;;;;;;21.88;67.63281;1001.204;;;;
2019/08/19 01:03:28;;;;;;;1.9;1;;;;;;;21.93;67.6416;1001.204;;;;
2019/08/19 01:05:53;;;;;;;2.7;0.9;;;;;;;21.88;67.85645;1001.197;;;;
2019/08/19 01:08:18;;;;;;;1.2;0.8;;;;;;;21.95;67.66797;1001.194;;;;
2019/08/19 01:10:43;;;;;;;1.4;0.8;;;;;;;21.93;68.01563;1001.039;;;;
2019/08/19 01:13:09;;;;;;;1.1;0.8;;;;;;;22.21;67.07129;1000.961;;;;
2019/08/19 01:15:34;;;;;;;0.8;0.7;;;;;;;22.09;67.56055;1000.982;;;;
2019/08/19 01:17:59;;;;;;;1.8;0.9;;;;;;;22.11;67.13965;1000.919;;;;
2019/08/19 01:20:24;;;;;;;1.3;0.8;;;;;;;21.76;68.9082;1001.034;;;;
2019/08/19 01:22:49;;;;;;;1.6;0.8;;;;;;;21.75;68.96484;1001.074;;;;
2019/08/19 01:25:14;;;;;;;1.3;0.8;;;;;;;22.11;67.83301;1000.999;;;;
2019/08/19 01:27:40;;;;;;;1.3;0.7;;;;;;;22.02;67.64355;1000.979;;;;
2019/08/19 01:30:05;;;;;;;1.8;1.1;;;;;;;21.86;68.04199;1001.059;;;;
2019/08/19 01:32:30;;;;;;;1.8;0.9;;;;;;;21.77;68.16895;1001.033;;;;
2019/08/19 01:34:55;;;;;;;1.1;0.8;;;;;;;21.74;68.16504;1000.978;;;;
2019/08/19 01:37:20;;;;;;;0.7;0.7;;;;;;;21.76;68.2041;1001.057;;;;
2019/08/19 01:39:46;;;;;;;1.2;0.7;;;;;;;21.69;68.83691;1001.059;;;;
2019/08/19 01:42:11;;;;;;;1;0.8;;;;;;;21.78;68.42969;1001.063;;;;
2019/08/19 01:44:36;;;;;;;1;0.8;;;;;;;21.54;68.9209;1001.143;;;;
2019/08/19 01:47:01;;;;;;;1.1;0.9;;;;;;;21.61;69.02441;1001.161;;;;
2019/08/19 01:49:26;;;;;;;1.3;0.7;;;;;;;21.63;69.15918;1001.194;;;;
2019/08/19 01:51:51;;;;;;;1.1;0.9;;;;;;;21.62;68.74512;1001.21;;;;
2019/08/19 01:54:17;;;;;;;1.4;0.8;;;;;;;21.47;69.66113;1001.178;;;;
2019/08/19 01:56:42;;;;;;;1.6;0.9;;;;;;;21.59;69.18555;1001.257;;;;
2019/08/19 01:59:07;;;;;;;1.8;0.9;;;;;;;21.78;68.6416;1001.224;;;;
2019/08/19 02:01:32;;;;;;;1.3;0.9;;;;;;;21.6;69.50391;1001.297;;;;
2019/08/19 02:03:57;;;;;;;2.4;1;;;;;;;21.59;69.13867;1001.277;;;;
2019/08/19 02:06:23;;;;;;;1;0.9;;;;;;;21.71;69.01758;1001.32;;;;
2019/08/19 02:08:48;;;;;;;1.3;0.9;;;;;;;21.48;70.05078;1001.328;;;;
2019/08/19 02:11:14;;;;;;;1.8;0.9;;;;;;;21.39;70.86816;1001.281;;;;
2019/08/19 02:13:39;;;;;;;0.9;0.8;;;;;;;21.53;70.25781;1001.357;;;;
2019/08/19 02:16:04;;;;;;;1.2;1.1;;;;;;;21.47;70.90527;1001.38;;;;
2019/08/19 02:18:29;;;;;;;1.5;0.9;;;;;;;21.63;69.87402;1001.439;;;;
2019/08/19 02:20:54;;;;;;;1.7;0.9;;;;;;;21.42;70.22754;1001.452;;;;
2019/08/19 02:23:20;;;;;;;1.1;0.9;;;;;;;21.35;70.55762;1001.375;;;;
2019/08/19 02:25:45;;;;;;;0.9;0.8;;;;;;;21.14;71.55566;1001.425;;;;
2019/08/19 02:28:10;;;;;;;1.6;1.1;;;;;;;21.32;71.20996;1001.479;;;;
2019/08/19 02:30:35;;;;;;;1;0.9;;;;;;;21.14;71.99023;1001.459;;;;
2019/08/19 02:33:00;;;;;;;1.2;0.8;;;;;;;21.11;72.44336;1001.457;;;;
2019/08/19 02:35:25;;;;;;;0.8;0.7;;;;;;;21.25;71.87793;1001.482;;;;
2019/08/19 02:37:50;;;;;;;3.1;0.9;;;;;;;21.24;71.32617;1001.475;;;;
2019/08/19 02:40:16;;;;;;;1.2;0.7;;;;;;;21.26;71.60938;1001.523;;;;
2019/08/19 02:42:40;;;;;;;1.4;0.9;;;;;;;21.16;71.79395;1001.467;;;;
2019/08/19 02:45:06;;;;;;;1.2;0.9;;;;;;;21.01;72.64844;1001.433;;;;
2019/08/19 02:47:31;;;;;;;1.7;1;;;;;;;21.09;71.83984;1001.568;;;;
2019/08/19 02:49:56;;;;;;;1;0.8;;;;;;;21.21;71.54297;1001.605;;;;
2019/08/19 02:52:21;;;;;;;1.1;1;;;;;;;21.21;70.74414;1001.568;;;;
2019/08/19 02:54:46;;;;;;;0.9;0.8;;;;;;;21.23;70.4082;1001.652;;;;
2019/08/19 02:57:11;;;;;;;0.9;0.8;;;;;;;21.25;70.66895;1001.663;;;;
2019/08/19 02:59:36;;;;;;;1.7;0.9;;;;;;;21.18;71.08008;1001.677;;;;
2019/08/19 03:02:02;;;;;;;1.2;0.9;;;;;;;21.34;70.73242;1001.718;;;;
2019/08/19 03:04:28;;;;;;;0.8;0.8;;;;;;;21.38;70.38574;1001.745;;;;
2019/08/19 03:06:52;;;;;;;1.8;0.8;;;;;;;21.36;70.42871;1001.589;;;;
2019/08/19 03:09:17;;;;;;;1.7;1.2;;;;;;;21.3;70.86621;1001.537;;;;
2019/08/19 03:11:42;;;;;;;1;0.8;;;;;;;21.34;70.82422;1001.559;;;;
2019/08/19 03:14:08;;;;;;;2;1;;;;;;;21.22;70.7373;1001.592;;;;
2019/08/19 03:16:33;;;;;;;1.4;1;;;;;;;21.08;70.90137;1001.56;;;;
2019/08/19 03:18:58;;;;;;;1;0.9;;;;;;;20.92;71.74316;1001.366;;;;
2019/08/19 03:21:23;;;;;;;1.6;1.3;;;;;;;20.88;71.94824;1001.394;;;;
2019/08/19 03:23:48;;;;;;;1.4;0.9;;;;;;;20.96;71.31543;1001.435;;;;
2019/08/19 03:26:13;;;;;;;1.1;0.9;;;;;;;20.89;71.5625;1001.327;;;;
2019/08/19 03:28:38;;;;;;;1.9;0.8;;;;;;;20.87;71.75781;1001.252;;;;
2019/08/19 03:31:04;;;;;;;1.1;1;;;;;;;21;71.18164;1001.406;;;;
2019/08/19 03:33:29;;;;;;;1.1;0.9;;;;;;;20.95;71.50098;1001.547;;;;
2019/08/19 03:35:54;;;;;;;1.1;1;;;;;;;20.79;72.54297;1001.653;;;;
2019/08/19 03:38:19;;;;;;;1;0.9;;;;;;;20.92;71.86035;1001.643;;;;
2019/08/19 03:40:44;;;;;;;1.1;1;;;;;;;21.1;71.32617;1001.649;;;;
2019/08/19 03:43:09;;;;;;;1.2;0.9;;;;;;;20.94;71.93359;1001.583;;;;
2019/08/19 03:45:35;;;;;;;1.3;1.1;;;;;;;20.73;72.83691;1001.52;;;;
2019/08/19 03:48:00;;;;;;;1.3;0.9;;;;;;;20.68;73.00586;1001.581;;;;
2019/08/19 03:50:25;;;;;;;1.4;0.9;;;;;;;20.8;72.67188;1001.541;;;;
2019/08/19 03:52:50;;;;;;;1.1;1;;;;;;;20.81;72.44043;1001.547;;;;
2019/08/19 03:55:16;;;;;;;1.4;1.1;;;;;;;20.63;72.99707;1001.585;;;;
2019/08/19 03:57:41;;;;;;;1.7;1.1;;;;;;;20.7;72.52637;1001.665;;;;
2019/08/19 04:02:28;;;;;;;1.7;1;;;;;;;20.89;72.23145;1001.611;;;;
2019/08/19 04:04:53;;;;;;;1.4;1;;;;;;;21.14;71.16992;1001.679;;;;
2019/08/19 04:07:18;;;;;;;1.1;1;;;;;;;21.02;71.40723;1001.724;;;;
2019/08/19 04:09:43;;;;;;;1.8;1;;;;;;;20.69;72.39648;1001.777;;;;
2019/08/19 04:12:08;;;;;;;1.4;1;;;;;;;20.52;73.23535;1001.722;;;;
2019/08/19 04:14:34;;;;;;;1.1;1;;;;;;;20.43;73.22168;1001.76;;;;
2019/08/19 04:16:59;;;;;;;1.5;1.1;;;;;;;20.49;72.97266;1001.788;;;;
2019/08/19 04:19:24;;;;;;;1.4;1.1;;;;;;;20.51;73.24512;1001.768;;;;
2019/08/19 04:21:49;;;;;;;1.7;1.1;;;;;;;20.57;73.16211;1001.755;;;;
2019/08/19 04:24:14;;;;;;;1.4;1.2;;;;;;;20.81;72.42871;1001.751;;;;
2019/08/19 04:26:39;;;;;;;2.2;1.3;;;;;;;20.68;73.07422;1001.76;;;;
2019/08/19 04:29:04;;;;;;;1.1;1;;;;;;;20.39;73.71777;1001.86;;;;
2019/08/19 04:31:29;;;;;;;1.5;1.2;;;;;;;20.28;74.26172;1001.88;;;;
2019/08/19 04:33:54;;;;;;;1.9;1.4;;;;;;;20.37;73.58398;1001.899;;;;
2019/08/19 04:36:20;;;;;;;2.4;1.2;;;;;;;20.28;73.93359;1001.818;;;;
2019/08/19 04:38:44;;;;;;;1.7;1.5;;;;;;;20.31;73.93848;1001.791;;;;
2019/08/19 04:41:10;;;;;;;2;1.3;;;;;;;20.31;73.99707;1001.824;;;;
2019/08/19 04:43:35;;;;;;;1.4;1.2;;;;;;;20.37;73.92383;1001.938;;;;
2019/08/19 04:46:00;;;;;;;1.9;1.4;;;;;;;20.24;74.62891;1001.965;;;;
2019/08/19 04:48:25;;;;;;;1.9;1.4;;;;;;;20.18;74.81641;1002.019;;;;
2019/08/19 04:50:50;;;;;;;1.8;1.4;;;;;;;20.33;74.78418;1002.075;;;;
2019/08/19 04:53:15;;;;;;;2.3;1.3;;;;;;;20.45;74.7002;1002.094;;;;
2019/08/19 04:55:40;;;;;;;2.1;1.2;;;;;;;20.22;75.43359;1002.038;;;;
2019/08/19 04:58:05;;;;;;;4.5;2.1;;;;;;;20.48;75.38379;1002.031;;;;
2019/08/19 05:00:31;;;;;;;3.6;1.8;;;;;;;20.62;74.53027;1002.006;;;;
2019/08/19 05:02:56;;;;;;;2.1;1.6;;;;;;;20.22;76.16016;1002.014;;;;
2019/08/19 05:05:21;;;;;;;3.2;1.6;;;;;;;20.07;76.2627;1002.024;;;;
2019/08/19 05:07:46;;;;;;;1.8;1.6;;;;;;;19.73;77.7334;1002.027;;;;
2019/08/19 05:10:11;;;;;;;2.9;1.6;;;;;;;19.63;77.9502;1002.043;;;;
2019/08/19 05:12:36;;;;;;;1.6;1.4;;;;;;;19.55;78.06445;1002.124;;;;
2019/08/19 05:15:02;;;;;;;2.9;2;;;;;;;19.64;77.76465;1002.203;;;;
2019/08/19 05:17:27;;;;;;;2.8;1.6;;;;;;;19.76;77.46094;1002.248;;;;
2019/08/19 05:19:52;;;;;;;4;2.5;;;;;;;20.04;76.83008;1002.322;;;;
2019/08/19 05:22:17;;;;;;;3.5;2.3;;;;;;;20.11;76.23242;1002.355;;;;
2019/08/19 05:24:42;;;;;;;3.3;2.4;;;;;;;19.98;76.92383;1002.44;;;;
2019/08/19 05:27:07;;;;;;;2.2;1.7;;;;;;;20.02;76.66309;1002.477;;;;
2019/08/19 05:29:32;;;;;;;2.1;1.6;;;;;;;19.97;77.27344;1002.519;;;;
2019/08/19 05:31:57;;;;;;;2.2;1.5;;;;;;;20.01;77.23633;1002.507;;;;
2019/08/19 05:34:22;;;;;;;2.3;1.5;;;;;;;20.04;76.94629;1002.511;;;;
2019/08/19 05:36:48;;;;;;;7;1.6;;;;;;;20.03;77.10742;1002.582;;;;
2019/08/19 05:39:12;;;;;;;1.7;1.4;;;;;;;20.04;77.08887;1002.583;;;;
2019/08/19 05:41:37;;;;;;;1.8;1.5;;;;;;;20.03;77.12109;1002.642;;;;
2019/08/19 05:44:03;;;;;;;2.7;1.6;;;;;;;19.81;77.81934;1002.707;;;;
2019/08/19 05:46:28;;;;;;;1.6;1.5;;;;;;;19.73;77.81738;1002.747;;;;
2019/08/19 05:48:53;;;;;;;2.2;1.5;;;;;;;19.97;76.98145;1002.767;;;;
2019/08/19 05:51:18;;;;;;;2.2;1.5;;;;;;;19.9;77.28418;1002.844;;;;
2019/08/19 05:53:43;;;;;;;2.2;1.5;;;;;;;20.31;76.18457;1002.91;;;;
2019/08/19 05:56:08;;;;;;;1.7;1.5;;;;;;;20.71;74.7207;1002.918;;;;
2019/08/19 05:58:34;;;;;;;2.5;1.3;;;;;;;21.22;72.73145;1002.94;;;;
2019/08/19 06:00:59;;;;;;;2;1.3;;;;;;;22.32;68.87598;1002.929;;;;
2019/08/19 06:03:24;;;;;;;1.7;1.3;;;;;;;22.52;67.55566;1002.961;;;;
2019/08/19 06:05:49;;;;;;;2.3;1.3;;;;;;;22.3;68.22656;1003.038;;;;
2019/08/19 06:08:14;;;;;;;1.5;1.2;;;;;;;23.05;64.99609;1002.942;;;;
2019/08/19 06:10:39;;;;;;;3.7;1.4;;;;;;;23.28;63.49902;1002.882;;;;
2019/08/19 06:13:04;;;;;;;3.7;2.1;;;;;;;23.17;64.02539;1002.951;;;;
2019/08/19 06:15:29;;;;;;;2.3;1.4;;;;;;;22.91;64.86914;1003.008;;;;
2019/08/19 06:17:54;;;;;;;2.5;1.2;;;;;;;22.63;65.68945;1003.055;;;;
2019/08/19 06:20:19;;;;;;;1.7;1.3;;;;;;;22.64;65.91406;1003.022;;;;
2019/08/19 06:22:45;;;;;;;1.7;1.5;;;;;;;22.52;66.38965;1003.015;;;;
2019/08/19 06:25:10;;;;;;;2.7;1.1;;;;;;;23.06;65.30566;1003.022;;;;
2019/08/19 06:27:35;;;;;;;1.6;1.2;;;;;;;23.21;64.36035;1003.054;;;;
2019/08/19 06:30:00;;;;;;;2.5;1.1;;;;;;;23.85;63.0957;1003.013;;;;
2019/08/19 06:32:25;;;;;;;1.3;1;;;;;;;24.67;60.04297;1003.039;;;;
2019/08/19 06:34:50;;;;;;;1.9;1;;;;;;;25.19;57.55859;1002.999;;;;
2019/08/19 06:37:15;;;;;;;2.4;0.9;;;;;;;25.95;55.80469;1003.021;;;;
2019/08/19 06:39:40;;;;;;;2;1.4;;;;;;;24.57;59.19043;1002.94;;;;
2019/08/19 06:42:05;;;;;;;1.4;1.1;;;;;;;23.79;62.09668;1002.945;;;;
2019/08/19 06:44:30;;;;;;;2.9;1.1;;;;;;;23.8;62.7002;1002.902;;;;
2019/08/19 06:46:56;;;;;;;8.1;1.1;;;;;;;25.13;57.99902;1002.852;;;;
2019/08/19 06:49:21;;;;;;;1.9;0.9;;;;;;;26.48;54.09082;1002.871;;;;
2019/08/19 06:51:47;;;;;;;1.4;1;;;;;;;25.86;54.87012;1002.906;;;;
2019/08/19 06:54:11;;;;;;;1;0.9;;;;;;;24.9;57.49609;1002.939;;;;
2019/08/19 06:56:37;;;;;;;1.7;0.8;;;;;;;25.86;55.41406;1002.911;;;;
2019/08/19 06:59:02;;;;;;;3.1;1;;;;;;;28.57;47.83203;1002.913;;;;
2019/08/19 07:01:27;;;;;;;1.5;0.8;;;;;;;28.9;45.39648;1002.93;;;;
2019/08/19 07:03:52;;;;;;;4.9;1.3;;;;;;;30.14;42.76855;1003.012;;;;
2019/08/19 07:06:17;;;;;;;1;0.9;;;;;;;29.69;43.95801;1003.04;;;;
2019/08/19 07:08:42;;;;;;;0.9;0.8;;;;;;;28.81;45.35156;1002.987;;;;
2019/08/19 07:11:07;;;;;;;1.9;1;;;;;;;27.59;48.50098;1003.061;;;;
2019/08/19 07:13:32;;;;;;;1.1;0.8;;;;;;;27.89;47.83105;1003.118;;;;
2019/08/19 07:15:58;;;;;;;0.9;0.8;;;;;;;26.92;50.15137;1003.11;;;;
2019/08/19 07:18:23;;;;;;;1.1;1;;;;;;;26.83;50.67578;1003.155;;;;
2019/08/19 07:20:48;;;;;;;1.4;0.8;;;;;;;26.56;49.74414;1003.159;;;;
2019/08/19 07:23:13;;;;;;;3;0.9;;;;;;;26.41;50.05957;1003.161;;;;
2019/08/19 07:25:38;;;;;;;2.1;1.2;;;;;;;26.36;50.25586;1003.159;;;;
2019/08/19 07:28:04;;;;;;;1.3;1.1;;;;;;;26.06;50.55273;1003.21;;;;
2019/08/19 07:30:29;;;;;;;2.1;1;;;;;;;26.21;50.66504;1003.216;;;;
2019/08/19 07:32:54;;;;;;;2;1;;;;;;;26.73;49.34668;1003.228;;;;
2019/08/19 07:35:19;;;;;;;0.9;0.9;;;;;;;27.98;45.42188;1003.234;;;;
2019/08/19 07:37:44;;;;;;;1;0.7;;;;;;;29.08;41.92871;1003.217;;;;
2019/08/19 07:40:10;;;;;;;0.9;0.8;;;;;;;30.22;39.04297;1003.233;;;;
2019/08/19 07:42:35;;;;;;;1.1;1;;;;;;;30.07;38.51465;1003.26;;;;
2019/08/19 07:45:00;;;;;;;1.4;0.8;;;;;;;30.78;37.37598;1003.266;;;;
2019/08/19 07:47:25;;;;;;;0.7;0.7;;;;;;;29.58;39.32129;1003.325;;;;
2019/08/19 07:49:50;;;;;;;1.1;0.7;;;;;;;29.65;39.29199;1003.312;;;;
2019/08/19 07:52:15;;;;;;;3;0.7;;;;;;;31.15;36.66406;1003.38;;;;
2019/08/19 07:54:40;;;;;;;2.6;0.9;;;;;;;32.7;33.97363;1003.332;;;;
2019/08/19 07:57:05;;;;;;;0.8;0.8;;;;;;;34.61;30.85254;1003.297;;;;
2019/08/19 07:59:31;;;;;;;0.9;0.8;;;;;;;32.31;34.08887;1003.355;;;;
2019/08/19 08:01:56;;;;;;;1.3;0.8;;;;;;;31.18;35.93555;1003.362;;;;
2019/08/19 08:04:21;;;;;;;0.9;0.7;;;;;;;28.94;39.54004;1003.292;;;;
2019/08/19 08:06:46;;;;;;;1;0.7;;;;;;;28.9;39.50098;1003.3;;;;
2019/08/19 08:09:12;;;;;;;1.6;0.9;;;;;;;28.18;42.01172;1003.283;;;;
2019/08/19 08:11:37;;;;;;;1.2;0.9;;;;;;;27.85;43.00586;1003.297;;;;
2019/08/19 08:14:02;;;;;;;1;0.9;;;;;;;29.89;38.73926;1003.22;;;;
2019/08/19 08:16:27;;;;;;;1;0.8;;;;;;;30.46;37.66211;1003.232;;;;
2019/08/19 08:18:52;;;;;;;0.9;0.9;;;;;;;31.64;35.5752;1003.29;;;;
2019/08/19 08:21:17;;;;;;;1.3;0.9;;;;;;;33.11;33.14941;1003.261;;;;
2019/08/19 08:23:43;;;;;;;1;0.9;;;;;;;33.42;32.89453;1003.366;;;;
2019/08/19 08:26:08;;;;;;;1.1;1;;;;;;;32.81;33.57227;1003.35;;;;
2019/08/19 08:28:33;;;;;;;1.1;1;;;;;;;32.02;34.67969;1003.376;;;;
2019/08/19 08:30:58;;;;;;;2.2;1;;;;;;;31.99;34.4248;1003.387;;;;
2019/08/19 08:33:23;;;;;;;1.3;0.9;;;;;;;31.48;34.66211;1003.366;;;;
2019/08/19 08:35:48;;;;;;;1.2;1;;;;;;;31.81;33.125;1003.377;;;;
2019/08/19 08:38:13;;;;;;;2.4;1;;;;;;;32.22;33.41992;1003.383;;;;
2019/08/19 08:40:39;;;;;;;1.2;1;;;;;;;33.94;30.8916;1003.415;;;;
2019/08/19 08:43:04;;;;;;;2.1;1;;;;;;;32.58;32.55664;1003.395;;;;
2019/08/19 08:45:29;;;;;;;2.7;1;;;;;;;32.17;33.48828;1003.445;;;;
2019/08/19 08:47:54;;;;;;;1.4;1;;;;;;;30.87;36.06641;1003.457;;;;
2019/08/19 08:50:19;;;;;;;2.2;1.1;;;;;;;29.01;39.71387;1003.472;;;;
2019/08/19 08:52:44;;;;;;;2.4;1.1;;;;;;;28.5;41.26563;1003.535;;;;
2019/08/19 08:55:09;;;;;;;1.1;1;;;;;;;29.65;39.05371;1003.626;;;;
2019/08/19 08:57:35;;;;;;;1.8;1;;;;;;;30.31;36.54883;1003.68;;;;
2019/08/19 09:00:00;;;;;;;2.9;1.7;;;;;;;29.12;36.94141;1003.682;;;;
2019/08/19 09:02:25;;;;;;;1.3;1.2;;;;;;;28.57;39.25781;1003.74;;;;
2019/08/19 09:04:50;;;;;;;1.6;1.2;;;;;;;27.79;40.34473;1003.794;;;;
2019/08/19 09:07:15;;;;;;;1.2;1.1;;;;;;;29.14;37.62305;1003.784;;;;
2019/08/19 09:09:41;;;;;;;1.7;1.2;;;;;;;28.8;36.15137;1003.779;;;;
2019/08/19 09:12:06;;;;;;;1.9;0.9;;;;;;;27.85;39.45605;1003.79;;;;
2019/08/19 09:14:31;;;;;;;2.5;1.1;;;;;;;29.14;36.97949;1003.757;;;;
2019/08/19 09:16:56;;;;;;;1.4;1;;;;;;;29.8;35.07227;1003.806;;;;
2019/08/19 09:19:21;;;;;;;1.3;0.9;;;;;;;30.58;34.54492;1003.787;;;;
2019/08/19 09:21:46;;;;;;;1.7;1.1;;;;;;;31.95;32.75195;1003.81;;;;
2019/08/19 09:24:13;;;;;;;1.1;1;;;;;;;32.3;32.13965;1003.801;;;;
2019/08/19 09:26:36;;;;;;;2.6;1.2;;;;;;;32.69;31.72168;1003.769;;;;
2019/08/19 09:29:02;;;;;;;1.6;1.2;;;;;;;33.42;30.94141;1003.77;;;;
2019/08/19 09:31:27;;;;;;;1.4;1.2;;;;;;;31.86;32.9248;1003.803;;;;
2019/08/19 09:33:52;;;;;;;1.7;1.2;;;;;;;30.86;34.81934;1003.83;;;;
2019/08/19 09:36:17;;;;;;;1.4;1.1;;;;;;;29.58;37.50586;1003.849;;;;
2019/08/19 09:38:42;;;;;;;2.5;1.1;;;;;;;29.92;36.39746;1003.856;;;;
2019/08/19 09:41:07;;;;;;;3.4;2.6;;;;;;;30.09;36.11133;1003.802;;;;
2019/08/19 09:43:32;;;;;;;2;1.1;;;;;;;30.76;36.33203;1003.76;;;;
2019/08/19 09:45:57;;;;;;;1.7;1;;;;;;;31.51;34.77246;1003.79;;;;
2019/08/19 09:48:23;;;;;;;2.6;1.1;;;;;;;30.94;35.2207;1003.784;;;;
2019/08/19 09:50:48;;;;;;;2.3;1;;;;;;;30.69;36.00391;1003.8;;;;
2019/08/19 09:53:13;;;;;;;3.5;2.4;;;;;;;28.96;39.60156;1003.833;;;;
2019/08/19 09:55:38;;;;;;;1.6;1.4;;;;;;;28.16;41.43848;1003.858;;;;
2019/08/19 09:58:03;;;;;;;1.9;1.1;;;;;;;28.44;40.86816;1003.821;;;;
2019/08/19 10:00:29;;;;;;;2.2;1.5;;;;;;;27.77;42.1875;1003.839;;;;
2019/08/19 10:02:54;;;;;;;1.9;1.2;;;;;;;27.36;42.96973;1003.874;;;;
2019/08/19 10:05:19;;;;;;;1.4;1.2;;;;;;;26.55;45.14844;1003.872;;;;
2019/08/19 10:07:44;;;;;;;1.5;1.2;;;;;;;27.4;42.84277;1003.878;;;;
2019/08/19 10:10:09;;;;;;;1.6;1.1;;;;;;;29.78;38.16699;1003.839;;;;
2019/08/19 10:12:34;;;;;;;1.7;1.1;;;;;;;30.54;36.6748;1003.866;;;;
2019/08/19 10:14:59;;;;;;;2.1;1.1;;;;;;;30.02;37.08789;1003.869;;;;
2019/08/19 10:17:24;;;;;;;1.1;1;;;;;;;29.23;38.83691;1003.887;;;;
2019/08/19 10:19:49;;;;;;;1;0.9;;;;;;;29.74;37.87695;1003.861;;;;
2019/08/19 10:22:14;;;;;;;2.1;1;;;;;;;30.36;36.63574;1003.833;;;;
2019/08/19 10:24:39;;;;;;;1.3;1.1;;;;;;;29.34;38.10645;1003.861;;;;
2019/08/19 10:27:04;;;;;;;2.1;1;;;;;;;30.13;37.08398;1003.79;;;;
2019/08/19 10:29:29;;;;;;;2.2;1.2;;;;;;;30.92;35.66211;1003.731;;;;
2019/08/19 10:31:54;;;;;;;7.1;1.4;;;;;;;31.07;35.72266;1003.717;;;;
2019/08/19 10:34:20;;;;;;;2.6;1.4;;;;;;;30.83;36.14648;1003.725;;;;
2019/08/19 10:36:45;;;;;;;2.7;1.2;;;;;;;29.54;38.09961;1003.756;;;;
2019/08/19 10:39:10;;;;;;;3.2;1.1;;;;;;;28.01;41.2334;1003.763;;;;
2019/08/19 10:41:35;;;;;;;2.1;1.1;;;;;;;28.54;38.80273;1003.772;;;;
2019/08/19 10:44:00;;;;;;;1.9;1.1;;;;;;;28.99;38.41113;1003.77;;;;
2019/08/19 10:46:25;;;;;;;1.2;1.1;;;;;;;28.27;38.75488;1003.79;;;;
2019/08/19 10:48:50;;;;;;;1.4;1.1;;;;;;;27.53;39.40527;1003.738;;;;
2019/08/19 10:51:15;;;;;;;1.5;1;;;;;;;27.52;38.77246;1003.711;;;;
2019/08/19 10:53:41;;;;;;;1.8;1.2;;;;;;;27.71;39.08789;1003.738;;;;
2019/08/19 10:56:06;;;;;;;2;1.1;;;;;;;27.64;39.98535;1003.721;;;;
2019/08/19 10:58:31;;;;;;;1.7;1.1;;;;;;;27.81;40.16797;1003.625;;;;
2019/08/19 11:00:56;;;;;;;1.5;1.1;;;;;;;27.34;41.24414;1003.591;;;;
2019/08/19 11:03:21;;;;;;;1.7;1.2;;;;;;;27.63;40.98438;1003.615;;;;
2019/08/19 11:05:46;;;;;;;2;1.2;;;;;;;27.35;40.69629;1003.612;;;;
2019/08/19 11:08:11;;;;;;;1.6;1.4;;;;;;;27.16;40.79883;1003.537;;;;
2019/08/19 11:10:36;;;;;;;1.5;1.2;;;;;;;27.44;40.96777;1003.491;;;;
2019/08/19 11:13:01;;;;;;;1.8;1.2;;;;;;;27.3;41.0498;1003.511;;;;
2019/08/19 11:15:27;;;;;;;1.2;1.1;;;;;;;27.26;40.74902;1003.556;;;;
2019/08/19 11:17:52;;;;;;;1.5;1.3;;;;;;;27.26;40.85547;1003.517;;;;
2019/08/19 11:20:17;;;;;;;2.1;1.3;;;;;;;27.57;40.02734;1003.477;;;;
2019/08/19 11:22:42;;;;;;;1.3;1.1;;;;;;;27.17;40.45605;1003.456;;;;
2019/08/19 11:25:07;;;;;;;2;1.3;;;;;;;27.31;39.58789;1003.491;;;;
2019/08/19 11:27:32;;;;;;;3.1;1.3;;;;;;;27.31;39.49219;1003.536;;;;
2019/08/19 11:29:57;;;;;;;2.5;1.4;;;;;;;27.71;39.0752;1003.587;;;;
2019/08/19 11:32:22;;;;;;;1.8;1.3;;;;;;;28.26;37.66992;1003.548;;;;
2019/08/19 11:34:48;;;;;;;2.4;1.2;;;;;;;28.56;36.96777;1003.486;;;;
2019/08/19 11:37:13;;;;;;;2.7;1.4;;;;;;;28.76;36.81738;1003.508;;;;
2019/08/19 11:39:38;;;;;;;2.5;1.3;;;;;;;28.44;37.04102;1003.563;;;;
2019/08/19 11:42:03;;;;;;;3.3;1.2;;;;;;;27.57;37.25488;1003.616;;;;
2019/08/19 11:44:28;;;;;;;1.2;1;;;;;;;27.73;37.98242;1003.548;;;;
2019/08/19 11:46:53;;;;;;;2;1.1;;;;;;;27.97;37.37109;1003.548;;;;
2019/08/19 11:49:18;;;;;;;1.8;1.3;;;;;;;28.15;37.24316;1003.494;;;;
2019/08/19 11:51:43;;;;;;;3.4;1.3;;;;;;;28.05;37.49707;1003.581;;;;
2019/08/19 11:54:19;;;;;;;2.3;1.4;;;;;;;27.66;37.70313;1003.701;;;;
2019/08/19 11:56:33;;;;;;;1.4;1.2;;;;;;;27.67;37.91699;1003.707;;;;
2019/08/19 11:58:58;;;;;;;2.4;1.3;;;;;;;27.87;37.91113;1003.629;;;;
2019/08/19 12:02:09;;;;;;;5.7;1.2;;;;;;;28.22;37.52246;1003.676;;;;
2019/08/19 12:03:49;;;;;;;1.8;1.3;;;;;;;27.93;38.82031;1003.68;;;;
2019/08/19 12:06:14;;;;;;;1.6;1.3;;;;;;;27.58;39.52832;1003.712;;;;
2019/08/19 12:08:39;;;;;;;2.3;1.3;;;;;;;27.43;40.40723;1003.715;;;;
2019/08/19 12:11:04;;;;;;;1.8;1.2;;;;;;;27.86;39.20703;1003.741;;;;
2019/08/19 12:13:29;;;;;;;1.6;1.2;;;;;;;27.77;38.9502;1003.731;;;;
2019/08/19 12:15:54;;;;;;;2.4;1.5;;;;;;;27.43;40.09863;1003.838;;;;
2019/08/19 12:18:19;;;;;;;1.9;1.2;;;;;;;27.55;40.13281;1003.811;;;;
2019/08/19 12:20:44;;;;;;;2.4;1.3;;;;;;;27.56;39.70508;1003.834;;;;
2019/08/19 12:23:10;;;;;;;1.7;1.2;;;;;;;27.47;39.53027;1003.78;;;;
2019/08/19 12:25:35;;;;;;;2.4;1.4;;;;;;;27.33;39.99414;1003.845;;;;
2019/08/19 12:28:00;;;;;;;1.6;1.3;;;;;;;27.53;39.16699;1003.834;;;;
2019/08/19 12:30:25;;;;;;;2.2;1.3;;;;;;;27.46;39.43457;1003.787;;;;
2019/08/19 12:32:50;;;;;;;1.9;1.5;;;;;;;27.31;39.14746;1003.829;;;;
2019/08/19 12:35:15;;;;;;;1.9;1.3;;;;;;;27.27;40.4043;1003.862;;;;
2019/08/19 12:37:40;;;;;;;2.3;1.5;;;;;;;27.11;40.09375;1003.908;;;;
2019/08/19 12:40:05;;;;;;;2.3;1.5;;;;;;;26.84;39.29785;1003.817;;;;
2019/08/19 12:42:30;;;;;;;3;1.6;;;;;;;26.9;39.61133;1003.831;;;;
2019/08/19 12:44:55;;;;;;;3.1;1.3;;;;;;;27.16;39.1582;1003.823;;;;
2019/08/19 12:47:21;;;;;;;1.6;1.3;;;;;;;27.4;38.67969;1003.812;;;;
2019/08/19 12:49:46;;;;;;;2;1.4;;;;;;;27.32;39.14941;1003.797;;;;
2019/08/19 12:52:11;;;;;;;1.7;1.4;;;;;;;27.3;36.4834;1003.821;;;;
2019/08/19 12:54:36;;;;;;;2.2;1.5;;;;;;;27.2;38.15137;1003.837;;;;
2019/08/19 12:57:01;;;;;;;4;1.5;;;;;;;27.37;37.22656;1003.852;;;;
2019/08/19 12:59:26;;;;;;;3.9;1.5;;;;;;;27.21;36.96289;1003.816;;;;
2019/08/19 13:01:51;;;;;;;3.8;1.5;;;;;;;27.31;37.56641;1003.861;;;;
2019/08/19 13:04:16;;;;;;;4.3;1.4;;;;;;;27.35;37.74805;1003.835;;;;
2019/08/19 13:06:42;;;;;;;2.2;1.3;;;;;;;27.18;37.08008;1003.808;;;;
2019/08/19 13:09:07;;;;;;;2.1;1.3;;;;;;;27.45;36.92383;1003.789;;;;
2019/08/19 13:11:32;;;;;;;3.1;1.5;;;;;;;27.36;36.95215;1003.805;;;;
2019/08/19 13:13:57;;;;;;;2.4;1.2;;;;;;;27.47;36.86523;1003.794;;;;
2019/08/19 13:16:22;;;;;;;3;1.3;;;;;;;26.96;35.86133;1003.843;;;;
2019/08/19 13:18:47;;;;;;;2.2;1.3;;;;;;;27.37;35.77539;1003.896;;;;
2019/08/19 13:21:12;;;;;;;2.3;1.2;;;;;;;27.48;35.11816;1003.884;;;;
2019/08/19 13:23:37;;;;;;;2.2;1.2;;;;;;;27.74;35.54297;1003.91;;;;
2019/08/19 13:26:02;;;;;;;2.7;1;;;;;;;27.79;34.98633;1003.951;;;;
2019/08/19 13:28:28;;;;;;;2.8;1.1;;;;;;;27.61;33.87891;1003.863;;;;
2019/08/19 13:30:53;;;;;;;2.5;1.3;;;;;;;27.55;34.19531;1003.897;;;;
2019/08/19 13:33:18;;;;;;;1.6;1.2;;;;;;;27.77;34.33105;1003.871;;;;
2019/08/19 13:35:43;;;;;;;2.7;1.2;;;;;;;27.81;34.20313;1003.893;;;;
2019/08/19 13:38:08;;;;;;;2.7;1.3;;;;;;;27.35;34.96484;1003.862;;;;
2019/08/19 13:40:33;;;;;;;4.1;1.4;;;;;;;27.43;34.66211;1003.828;;;;
2019/08/19 13:42:58;;;;;;;2.6;1.2;;;;;;;27.4;35.06445;1003.789;;;;
2019/08/19 13:45:29;;;;;;;3.5;1.2;;;;;;;27.43;34.9834;1003.771;;;;
2019/08/19 13:47:54;;;;;;;1.9;1.1;;;;;;;27.38;35.7041;1003.793;;;;
2019/08/19 13:50:19;;;;;;;2.9;1.5;;;;;;;27.62;35.10547;1003.773;;;;
2019/08/19 13:52:44;;;;;;;2.2;1.3;;;;;;;27.38;35.39648;1003.7;;;;
2019/08/19 13:55:09;;;;;;;4.1;1.3;;;;;;;27.86;35.45703;1003.713;;;;
2019/08/19 13:57:34;;;;;;;2.9;1.3;;;;;;;27.57;35.56445;1003.72;;;;
2019/08/19 13:59:59;;;;;;;2.6;1.2;;;;;;;27.19;34.69043;1003.655;;;;
2019/08/19 14:02:24;;;;;;;3.9;1.4;;;;;;;27.51;34.49023;1003.68;;;;
2019/08/19 14:04:49;;;;;;;3.7;1.6;;;;;;;27.08;34.52832;1003.628;;;;
2019/08/19 14:07:14;;;;;;;2.3;1.4;;;;;;;27.22;34.36035;1003.654;;;;
2019/08/19 14:09:39;;;;;;;1.8;1.3;;;;;;;27.36;34.06152;1003.614;;;;
2019/08/19 14:12:04;;;;;;;4.3;1.5;;;;;;;27.13;35.19824;1003.578;;;;
2019/08/19 14:14:30;;;;;;;2.7;1.2;;;;;;;27.24;35.37305;1003.568;;;;
2019/08/19 14:16:55;;;;;;;2.1;1.4;;;;;;;27.34;35.27246;1003.584;;;;